Portada
METAR-TAF:

METAR-TAF

Aeroports :

Bhavnagar, Índia

latitud: 21-45-08N, longitud: 72-11-07E, altitud: 6 m

Observació

L'informe es va fer fa 1 hora i 0 minuts, a les 11:00 UTC
Vent 7 kt del Est
Temperatura 31°C
Humitat 46%
Pressió 1011 hPa
Visibilitat: 5000 m
fum

METAR: VABV 211100Z 10007KT 5000 FU NSC 31/18 Q1011

Hora: 17:30 (12:00 UTC)

Pronòstic

L'informe es va fer fa 1 hora i 0 minuts, a les 11:00 UTC
Pronòstic vàlid del 21 a les 12 UTC al 21 a les 21 UTC
Vent 3 kt del Oest/Sud-Oest
Visibilitat: 4000 m
fum
Evolucionant progressivament
l' 21 a les 16 UTC al 21 a les 18 UTC
Vent 2 kt amb direcció variable
calitja

TAF: VABV 211100Z 2112/2121 25003KT 4000 FU NSC BECMG 2116/2118 VRB02KT HZ

Observacions i pronòstics meteorològics de més de 4000 aeroports (METAR i TAF).

Les estacions disponibles són els punts grocs i vermells al mapa.

Posi el ratolí al punt desitjat per veure el nom de l'estació.

Feu clic per veure les observacions i els pronòstics meteorològics.

Per canviar el mapa: feu clic els botons verds amb una creu de color negre per apropar; al botó verd amb un guió per allunyar la imatge; o en les fletxes verdes per a mapes adjacents.


METAR-TAF: